Tenerife > ESTACION METEOROLÓGICA Camino de Chasna - La Orotava

DATOS ACTUALES Online

Ultima actulizacion 43 minutos

14.5 ºC

Temperatura

84

Humedad (%)

928.16

Presión (mb)

0

Precipitación (mm)

9.6 W

Viento (Km/h)

DATOS DIARIOS

Temperatura últimas 24 horas (ºC)

Humedad últimas 24 horas (%)

Presión atmosférica últimas 24 horas (mb)

Precipitaciones últimas 23 horas (mm)

Viento últimas 24 horas (Km/h)

Hora Temperatura (°C) ºC Precipitación (mm) mm Presión (mb) mb Humedad (%) % Viento (Km/h) km/h
28 - 10:00 16.7 0 927 81 12.9 N
28 - 11:00 15.4 0 928 87 7.6 N
28 - 12:00 14.6 0 928 89 20.1 NO
28 - 13:00 14.5 0 928 89 13.9 N
28 - 14:00 14.7 0 928 89 17 N
28 - 15:00 15.3 0 928 87 9.1 N
28 - 16:00 15.5 0 928 88 10.1 N
28 - 17:00 15.2 0 928 88 13.7 N
28 - 18:00 14.9 0 927 89 17 N
28 - 19:00 15.3 0 928 87 13.4 NO
28 - 20:00 14.5 0 928 88 7.6 S
28 - 21:00 14.8 0 928 89 10.2 NW
28 - 22:00 14 0 928 90 5.5 SW
28 - 23:00 14.3 0 929 86 11.3 S
29 - 00:00 13.9 0 928 88 8.7 SO
29 - 01:00 13.9 0 928 87 11.4 S
29 - 02:00 14 0 928 88 6 NO
29 - 03:00 14 0 927 85 9 SO
29 - 04:00 13.4 0 927 88 9.4 SW
29 - 05:00 13.6 0 927 87 13.8 S
29 - 06:00 14.1 0 927 86 6.9 SO
29 - 07:00 14 0 927 88 6.6 NO
29 - 08:00 13.2 0 928 89 13.8 N
29 - 09:00 14.5 0 928 84 9.6 W
29 - 10:00
Apalmet utiliza cookies propias y de terceros para mejorar la usabilidad y la experiencia web. Política de cookies.